createdAt,value
2022-11-22T00:01:29.067Z,36.80
2022-11-22T00:03:57.867Z,40.20
2022-11-22T00:06:26.698Z,47.40
2022-11-22T00:08:55.481Z,41.90
2022-11-22T00:11:24.460Z,40.70
2022-11-22T00:13:53.274Z,45.80
2022-11-22T00:16:22.096Z,49.40
2022-11-22T00:18:50.885Z,50.00
2022-11-22T00:21:20.099Z,60.00
2022-11-22T00:23:48.863Z,40.60
2022-11-22T00:26:17.829Z,39.80
2022-11-22T00:28:46.596Z,32.90
2022-11-22T00:31:15.356Z,39.90
2022-11-22T00:33:44.322Z,43.10
2022-11-22T00:36:13.220Z,42.10
2022-11-22T00:38:42.013Z,43.80
2022-11-22T00:41:10.805Z,39.40
2022-11-22T00:43:39.555Z,42.00
2022-11-22T00:46:08.323Z,43.10
2022-11-22T00:48:37.216Z,42.20
2022-11-22T00:51:06.068Z,49.80
2022-11-22T00:53:34.814Z,49.60
2022-11-22T00:56:04.212Z,61.70
2022-11-22T00:58:33.004Z,41.10
2022-11-22T01:01:01.887Z,41.20
2022-11-22T01:03:30.693Z,41.00
2022-11-22T01:05:59.910Z,42.70
2022-11-22T01:08:28.683Z,43.90
2022-11-22T01:11:01.744Z,40.80
2022-11-22T01:13:30.545Z,42.90
2022-11-22T01:16:00.566Z,41.90
2022-11-22T01:18:29.587Z,40.50
2022-11-22T01:20:58.476Z,43.60
2022-11-22T01:23:27.345Z,47.90
2022-11-22T01:25:56.313Z,58.50
2022-11-22T01:28:28.442Z,72.70
2022-11-22T01:30:57.275Z,43.30
2022-11-22T01:33:26.225Z,40.10
2022-11-22T01:35:55.071Z,37.60
2022-11-22T01:38:24.118Z,42.70
2022-11-22T01:40:53.588Z,43.60
2022-11-22T01:43:23.458Z,40.80
2022-11-22T01:45:53.406Z,42.10
2022-11-22T01:48:40.945Z,40.40
2022-11-22T01:51:21.447Z,37.30
2022-11-22T01:53:50.531Z,38.50
2022-11-22T01:56:21.049Z,43.20
2022-11-22T01:58:53.325Z,42.70
2022-11-22T02:01:22.269Z,54.20
2022-11-22T02:03:52.226Z,70.10
2022-11-22T02:06:21.300Z,43.00
2022-11-22T02:08:57.619Z,41.90
2022-11-22T02:11:32.513Z,36.20
2022-11-22T02:14:03.634Z,40.00
2022-11-22T02:16:34.478Z,42.10
2022-11-22T02:19:04.113Z,39.60
2022-11-22T02:21:33.120Z,48.60
2022-11-22T02:24:07.538Z,37.80
2022-11-22T02:26:37.400Z,41.90
2022-11-22T02:29:07.875Z,41.40
2022-11-22T02:31:42.488Z,46.20
2022-11-22T02:34:12.227Z,49.70
2022-11-22T02:36:51.348Z,58.80
2022-11-22T02:39:23.690Z,38.40
2022-11-22T02:41:53.122Z,38.80
2022-11-22T02:44:21.984Z,38.80
2022-11-22T02:46:52.513Z,37.80
2022-11-22T02:49:22.450Z,43.40
2022-11-22T02:51:52.041Z,42.80
2022-11-22T02:54:21.109Z,38.80
2022-11-22T02:56:49.942Z,37.10
2022-11-22T02:59:18.820Z,39.70
2022-11-22T03:01:48.369Z,42.10
2022-11-22T03:04:26.690Z,46.90
2022-11-22T03:06:56.893Z,49.40
2022-11-22T03:09:26.464Z,44.70
2022-11-22T03:11:55.309Z,36.10
2022-11-22T03:14:24.646Z,35.80
2022-11-22T03:16:53.475Z,37.50
2022-11-22T03:19:22.437Z,42.10
2022-11-22T03:21:51.405Z,40.90
2022-11-22T03:24:20.376Z,43.40
2022-11-22T03:26:50.110Z,38.80
2022-11-22T03:29:19.103Z,41.00
2022-11-22T03:31:47.887Z,43.60
2022-11-22T03:34:17.120Z,46.10
2022-11-22T03:36:45.876Z,48.70
2022-11-22T03:39:14.736Z,56.70
2022-11-22T03:41:43.502Z,37.50
2022-11-22T03:44:12.315Z,36.80
2022-11-22T03:46:41.197Z,34.80
2022-11-22T03:49:10.668Z,37.90
2022-11-22T03:51:39.481Z,40.20
2022-11-22T03:54:08.297Z,42.10
2022-11-22T03:56:37.115Z,39.60
2022-11-22T03:59:05.928Z,39.70
2022-11-22T04:01:34.815Z,40.30
2022-11-22T04:04:03.760Z,42.00
2022-11-22T04:06:32.558Z,40.40
2022-11-22T04:09:01.427Z,45.10
2022-11-22T04:11:30.563Z,43.50
2022-11-22T04:14:18.114Z,43.70
2022-11-22T04:16:47.131Z,35.70
2022-11-22T04:19:15.976Z,37.70
2022-11-22T04:21:44.992Z,38.50
2022-11-22T04:24:32.414Z,39.10
2022-11-22T04:27:01.201Z,39.90
2022-11-22T04:29:30.153Z,41.60
2022-11-22T04:32:17.833Z,45.50
2022-11-22T04:34:46.717Z,41.40
2022-11-22T04:37:15.510Z,43.70
2022-11-22T04:39:44.651Z,53.40
2022-11-22T04:42:32.134Z,41.50
2022-11-22T04:45:00.962Z,43.50
2022-11-22T04:47:50.549Z,44.80
2022-11-22T04:50:38.126Z,42.00
2022-11-22T04:53:06.929Z,44.90
2022-11-22T04:55:35.999Z,45.80
2022-11-22T04:58:04.847Z,47.40
2022-11-22T05:00:33.827Z,49.50
2022-11-22T05:03:03.663Z,54.90
2022-11-22T05:05:35.118Z,50.40
2022-11-22T05:08:04.792Z,51.80
2022-11-22T05:10:53.778Z,63.60
2022-11-22T05:13:23.953Z,44.50
2022-11-22T05:15:53.102Z,43.60
2022-11-22T05:18:22.664Z,44.00
2022-11-22T05:20:52.266Z,41.80
2022-11-22T05:23:40.166Z,51.50
2022-11-22T05:26:10.233Z,49.80
2022-11-22T05:28:39.482Z,51.00
2022-11-22T05:31:12.824Z,51.30
2022-11-22T05:33:42.312Z,58.70
2022-11-22T05:36:12.442Z,62.20
2022-11-22T05:38:41.353Z,83.20
2022-11-22T05:41:11.599Z,92.90
2022-11-22T05:43:40.998Z,62.40
2022-11-22T05:46:20.987Z,56.80
2022-11-22T05:51:23.097Z,46.90
2022-11-22T05:53:52.046Z,57.70
2022-11-22T05:56:21.867Z,55.60
2022-11-22T05:58:50.988Z,52.20
2022-11-22T06:01:20.980Z,56.50
2022-11-22T06:03:50.607Z,53.70
2022-11-22T06:06:19.770Z,55.10
2022-11-22T06:08:48.920Z,73.00
2022-11-22T06:11:19.250Z,71.30
2022-11-22T06:13:49.057Z,81.60
2022-11-22T06:16:17.963Z,53.10
2022-11-22T06:18:46.789Z,51.80
2022-11-22T06:21:17.479Z,51.30
2022-11-22T06:23:46.697Z,53.60
2022-11-22T06:26:16.835Z,56.40
2022-11-22T06:28:46.817Z,59.50
2022-11-22T06:31:16.963Z,60.10
2022-11-22T06:33:46.052Z,58.40
2022-11-22T06:36:18.871Z,61.30
2022-11-22T06:41:17.728Z,82.50
2022-11-22T06:43:49.244Z,97.60
2022-11-22T06:46:19.125Z,68.80
2022-11-22T06:48:48.350Z,54.70
2022-11-22T06:51:18.727Z,56.10
2022-11-22T06:53:49.240Z,55.40
2022-11-22T06:56:19.416Z,59.80
2022-11-22T06:58:49.343Z,63.40
2022-11-22T07:01:19.369Z,59.60
2022-11-22T07:03:48.672Z,57.20
2022-11-22T07:06:18.303Z,59.50
2022-11-22T07:08:47.236Z,70.40
2022-11-22T07:11:17.751Z,71.10
2022-11-22T07:13:47.124Z,81.80
2022-11-22T07:16:16.913Z,86.00
2022-11-22T07:18:45.674Z,63.50
2022-11-22T07:21:15.915Z,60.20
2022-11-22T07:23:46.246Z,68.00
2022-11-22T07:26:16.126Z,56.70
2022-11-22T07:28:45.404Z,58.20
2022-11-22T07:31:14.839Z,67.20
2022-11-22T07:33:44.195Z,58.10
2022-11-22T07:36:17.600Z,59.20
2022-11-22T07:38:47.923Z,60.90
2022-11-22T07:41:17.934Z,72.90
2022-11-22T07:43:47.302Z,71.70
2022-11-22T07:46:20.437Z,88.00
2022-11-22T07:48:49.936Z,98.40
2022-11-22T07:51:18.796Z,69.50
2022-11-22T07:53:47.689Z,67.70
2022-11-22T07:56:17.126Z,56.80
2022-11-22T07:58:46.025Z,64.00
2022-11-22T08:01:16.799Z,71.80
2022-11-22T08:03:45.995Z,68.50
2022-11-22T08:06:15.186Z,70.00
2022-11-22T08:08:44.289Z,74.50
2022-11-22T08:11:13.115Z,60.90
2022-11-22T08:13:42.574Z,80.40
2022-11-22T08:16:12.662Z,73.60
2022-11-22T08:18:42.001Z,80.30
2022-11-22T08:21:12.397Z,96.60
2022-11-22T08:23:42.377Z,70.00
2022-11-22T08:26:12.717Z,70.90
2022-11-22T08:28:42.338Z,68.70
2022-11-22T08:31:13.258Z,62.00
2022-11-22T08:33:42.271Z,82.50
2022-11-22T08:36:11.549Z,74.60
2022-11-22T08:38:40.395Z,71.20
2022-11-22T08:41:09.212Z,71.10
2022-11-22T08:43:38.397Z,74.00
2022-11-22T08:46:07.360Z,75.60
2022-11-22T08:48:36.891Z,76.80
2022-11-22T08:51:07.127Z,87.80
2022-11-22T08:53:42.618Z,62.80
2022-11-22T08:56:12.845Z,71.30
2022-11-22T08:58:41.881Z,64.40
2022-11-22T09:01:12.174Z,70.20
2022-11-22T09:03:41.233Z,65.80
2022-11-22T09:09:29.940Z,72.40
2022-11-22T09:11:49.214Z,69.90
2022-11-22T09:14:18.109Z,65.40
2022-11-22T09:16:46.926Z,70.90
2022-11-22T09:19:15.769Z,70.50
2022-11-22T09:21:44.608Z,80.00
2022-11-22T09:24:13.659Z,96.60
2022-11-22T09:26:42.543Z,71.90
2022-11-22T09:29:11.418Z,61.80
2022-11-22T09:31:40.228Z,57.30
2022-11-22T09:34:09.053Z,62.20
2022-11-22T09:36:37.859Z,60.40
2022-11-22T09:39:06.694Z,69.50
2022-11-22T09:41:35.482Z,69.90
2022-11-22T09:44:04.736Z,66.50
2022-11-22T09:46:53.981Z,69.10
2022-11-22T09:49:41.566Z,66.40
2022-11-22T09:52:19.626Z,65.80
2022-11-22T09:54:50.629Z,76.90
2022-11-22T09:57:24.960Z,60.20
2022-11-22T10:00:07.866Z,74.20
2022-11-22T10:02:59.997Z,69.20
2022-11-22T10:05:35.082Z,72.60
2022-11-22T10:08:22.461Z,82.50
2022-11-22T10:10:52.893Z,80.00
2022-11-22T10:13:45.117Z,81.70
2022-11-22T10:16:15.431Z,76.80
2022-11-22T10:18:46.627Z,86.10
2022-11-22T10:21:15.494Z,73.50
2022-11-22T10:23:45.493Z,76.00
2022-11-22T10:26:17.605Z,66.40
2022-11-22T10:28:52.315Z,63.90
2022-11-22T10:31:24.785Z,60.30
2022-11-22T10:34:11.640Z,65.30
2022-11-22T10:36:43.385Z,63.50
2022-11-22T10:39:31.468Z,59.00
2022-11-22T10:42:16.697Z,57.70
2022-11-22T10:44:45.457Z,53.00
2022-11-22T10:47:17.401Z,57.10
2022-11-22T10:49:46.312Z,59.10
2022-11-22T10:52:38.160Z,55.00
2022-11-22T10:55:19.099Z,63.50
2022-11-22T10:57:47.898Z,59.80
2022-11-22T11:00:21.054Z,57.50
2022-11-22T11:02:49.892Z,57.70
2022-11-22T11:05:20.569Z,62.50
2022-11-22T11:07:56.559Z,54.50
2022-11-22T11:10:34.537Z,60.80
2022-11-22T11:13:24.898Z,55.30
2022-11-22T11:15:56.456Z,52.90
2022-11-22T11:18:45.735Z,52.10
2022-11-22T11:21:14.768Z,51.00
2022-11-22T11:23:43.948Z,51.80
2022-11-22T11:26:21.127Z,55.30
2022-11-22T11:28:50.168Z,48.10
2022-11-22T11:31:21.728Z,54.80
2022-11-22T11:33:50.776Z,57.40
2022-11-22T11:36:24.352Z,62.60
2022-11-22T11:38:55.628Z,51.10
2022-11-22T11:41:31.384Z,50.70
2022-11-22T11:44:04.290Z,48.30
2022-11-22T11:46:36.637Z,56.40
2022-11-22T11:49:09.813Z,40.40
2022-11-22T11:51:42.444Z,33.20
2022-11-22T11:54:14.237Z,34.50
2022-11-22T11:57:04.100Z,25.40
2022-11-22T11:59:38.819Z,25.10
2022-11-22T12:02:15.235Z,31.00
2022-11-22T12:04:52.307Z,32.50
2022-11-22T12:07:33.715Z,37.80
2022-11-22T12:10:22.676Z,36.40
2022-11-22T12:12:54.630Z,37.70
2022-11-22T12:15:26.588Z,35.00
2022-11-22T12:18:07.239Z,35.30
2022-11-22T12:20:42.150Z,32.60
2022-11-22T12:23:17.284Z,37.90
2022-11-22T12:25:46.476Z,46.40
2022-11-22T12:28:15.241Z,42.60
2022-11-22T12:30:45.199Z,42.20
2022-11-22T12:33:22.619Z,41.00
2022-11-22T12:35:53.613Z,44.70
2022-11-22T12:38:28.803Z,41.20
2022-11-22T12:41:00.363Z,45.60
2022-11-22T12:43:31.309Z,46.00
2022-11-22T12:46:10.989Z,51.50
2022-11-22T12:48:49.020Z,43.60
2022-11-22T12:51:36.259Z,43.70
2022-11-22T12:54:06.686Z,51.00
2022-11-22T12:56:40.194Z,50.20
2022-11-22T12:59:12.267Z,50.20
2022-11-22T13:02:00.045Z,54.20
2022-11-22T13:04:47.610Z,53.70
2022-11-22T13:07:20.099Z,54.80
2022-11-22T13:09:51.754Z,60.60
2022-11-22T13:12:28.117Z,59.60
2022-11-22T13:14:58.951Z,69.90
2022-11-22T13:17:33.263Z,55.40
2022-11-22T13:20:15.558Z,55.60
2022-11-22T13:22:59.732Z,50.80
2022-11-22T13:25:45.673Z,52.90
2022-11-22T13:28:16.522Z,51.50
2022-11-22T13:31:03.528Z,50.50
2022-11-22T13:33:32.987Z,43.70
2022-11-22T13:36:34.391Z,41.20
2022-11-22T13:39:05.487Z,45.60
2022-11-22T13:41:34.276Z,48.90
2022-11-22T13:44:21.576Z,54.40
2022-11-22T13:46:50.498Z,42.20
2022-11-22T13:49:35.256Z,45.80
2022-11-22T13:52:26.481Z,41.40
2022-11-22T13:54:58.512Z,45.10
2022-11-22T13:57:30.244Z,44.50
2022-11-22T14:00:11.366Z,46.80
2022-11-22T14:02:42.998Z,50.20
2022-11-22T14:05:38.202Z,49.90
2022-11-22T14:08:29.340Z,57.40
2022-11-22T14:11:10.475Z,64.20
2022-11-22T14:14:02.455Z,71.50
2022-11-22T14:16:41.941Z,51.50
2022-11-22T14:19:10.824Z,46.50
2022-11-22T14:21:48.487Z,49.30
2022-11-22T14:24:27.308Z,46.00
2022-11-22T14:27:16.448Z,45.90
2022-11-22T14:30:04.465Z,48.70
2022-11-22T14:32:54.503Z,44.60
2022-11-22T14:35:29.850Z,40.60
2022-11-22T14:38:02.361Z,43.60
2022-11-22T14:40:33.043Z,52.60
2022-11-22T14:43:03.636Z,51.80
2022-11-22T14:45:35.693Z,37.50
2022-11-22T14:48:11.083Z,33.00
2022-11-22T14:50:44.693Z,40.30
2022-11-22T14:53:32.167Z,38.10
2022-11-22T14:56:05.930Z,38.50
2022-11-22T14:58:39.764Z,33.90
2022-11-22T15:01:38.116Z,35.40
2022-11-22T15:09:16.597Z,39.80
2022-11-22T15:09:20.360Z,37.20
2022-11-22T15:10:28.711Z,43.80
2022-11-22T15:13:16.955Z,58.00
2022-11-22T15:59:35.777Z,50.40
2022-11-22T16:02:12.613Z,52.00
2022-11-22T16:04:47.025Z,71.30
2022-11-22T16:07:23.803Z,49.40
2022-11-22T16:09:52.678Z,45.40
2022-11-22T16:12:29.359Z,46.00
2022-11-22T16:15:16.707Z,53.50
2022-11-22T16:17:49.555Z,46.30
2022-11-22T16:20:34.421Z,49.80
2022-11-22T16:23:04.596Z,45.40
2022-11-22T16:25:34.600Z,47.20
2022-11-22T16:28:06.375Z,50.70
2022-11-22T16:30:42.400Z,66.50
2022-11-22T16:33:11.486Z,78.70
2022-11-22T16:35:40.611Z,54.10
2022-11-22T16:38:10.856Z,40.30
2022-11-22T16:40:42.250Z,42.80
2022-11-22T16:43:21.187Z,40.00
2022-11-22T16:45:50.707Z,40.20
2022-11-22T16:48:31.774Z,42.40
2022-11-22T16:51:05.323Z,43.50
2022-11-22T16:56:02.937Z,46.20
2022-11-22T16:58:31.809Z,54.00
2022-11-22T17:01:00.905Z,71.50
2022-11-22T17:03:31.938Z,46.30
2022-11-22T17:06:00.792Z,45.60
2022-11-22T17:08:29.681Z,38.90
2022-11-22T17:10:59.889Z,42.10
2022-11-22T17:13:28.961Z,46.60
2022-11-22T17:15:57.989Z,40.80
2022-11-22T17:18:26.971Z,46.70
2022-11-22T17:20:55.886Z,51.40
2022-11-22T17:23:27.000Z,54.20
2022-11-22T17:25:56.022Z,60.90
2022-11-22T17:28:25.178Z,75.40
2022-11-22T17:30:54.425Z,47.50
2022-11-22T17:33:25.043Z,44.20
2022-11-22T17:35:54.499Z,45.40
2022-11-22T17:38:23.411Z,45.40
2022-11-22T17:40:58.442Z,49.50
2022-11-22T17:43:27.369Z,53.40
2022-11-22T17:45:56.486Z,50.50
2022-11-22T17:48:25.357Z,52.30
2022-11-22T17:50:54.374Z,61.70
2022-11-22T17:53:23.223Z,84.20
2022-11-22T17:56:09.931Z,100.70
2022-11-22T17:58:40.801Z,66.40
2022-11-22T18:01:11.341Z,56.10
2022-11-22T18:03:40.980Z,43.60
2022-11-22T18:06:10.751Z,45.10
2022-11-22T18:08:46.430Z,45.30
2022-11-22T18:11:16.388Z,50.70
2022-11-22T18:13:45.300Z,45.10
2022-11-22T18:16:18.597Z,59.60
2022-11-22T18:19:02.813Z,57.20
2022-11-22T18:21:32.577Z,74.60
2022-11-22T18:24:01.926Z,82.00
2022-11-22T18:26:39.249Z,57.30
2022-11-22T18:31:59.518Z,51.70
2022-11-22T18:34:28.435Z,56.00
2022-11-22T18:37:01.917Z,52.30
2022-11-22T18:42:23.512Z,56.90
2022-11-22T18:44:52.339Z,61.00
2022-11-22T18:47:21.227Z,66.10
2022-11-22T18:49:50.177Z,61.10
2022-11-22T18:52:19.055Z,72.80
2022-11-22T18:54:48.404Z,51.70
2022-11-22T18:57:17.283Z,52.80
2022-11-22T18:59:46.156Z,55.20
2022-11-22T19:02:14.950Z,46.00
2022-11-22T19:04:43.830Z,43.40
2022-11-22T19:07:14.824Z,45.60
2022-11-22T19:09:43.709Z,47.50
2022-11-22T19:12:12.494Z,51.70
2022-11-22T19:14:41.396Z,54.60
2022-11-22T19:17:10.530Z,62.20
2022-11-22T19:19:39.356Z,43.70
2022-11-22T19:22:08.622Z,38.10
2022-11-22T19:24:37.449Z,38.70
2022-11-22T19:27:06.207Z,44.20
2022-11-22T19:29:35.844Z,40.70
2022-11-22T19:32:04.904Z,41.30
2022-11-22T19:34:33.718Z,54.80
2022-11-22T19:37:02.571Z,52.80
2022-11-22T19:39:31.544Z,59.60
2022-11-22T19:42:00.541Z,72.10
2022-11-22T19:44:29.824Z,46.90
2022-11-22T19:46:58.595Z,43.00
2022-11-22T19:49:27.652Z,42.90
2022-11-22T19:51:59.467Z,44.70
2022-11-22T19:54:28.315Z,42.50
2022-11-22T19:56:57.084Z,45.30
2022-11-22T19:59:26.112Z,46.30
2022-11-22T20:01:54.896Z,46.90
2022-11-22T20:04:23.715Z,54.90
2022-11-22T20:06:52.978Z,66.10
2022-11-22T20:09:22.432Z,79.10
2022-11-22T20:11:51.251Z,48.20
2022-11-22T20:14:20.070Z,44.80
2022-11-22T20:16:48.847Z,51.10
2022-11-22T20:19:17.623Z,50.10
2022-11-22T20:21:49.573Z,52.80
2022-11-22T20:24:18.364Z,46.30
2022-11-22T20:26:47.137Z,52.20
2022-11-22T20:29:16.145Z,60.50
2022-11-22T20:31:45.032Z,69.10
2022-11-22T20:34:15.884Z,63.20
2022-11-22T20:36:44.774Z,69.50
2022-11-22T20:39:13.607Z,53.20
2022-11-22T20:41:42.414Z,52.20
2022-11-22T20:44:12.793Z,52.40
2022-11-22T20:46:41.638Z,60.00
2022-11-22T20:49:10.464Z,55.30
2022-11-22T20:51:40.223Z,58.40
2022-11-22T20:54:10.075Z,55.60
2022-11-22T20:56:39.081Z,67.10
2022-11-22T20:59:07.932Z,68.00
2022-11-22T21:01:36.876Z,75.40
2022-11-22T21:04:06.050Z,84.00
2022-11-22T21:06:35.147Z,64.40
2022-11-22T21:09:04.185Z,58.60
2022-11-22T21:11:33.064Z,59.30
2022-11-22T21:14:01.917Z,52.20
2022-11-22T21:16:31.033Z,51.00
2022-11-22T21:19:07.293Z,53.00
2022-11-22T21:21:36.974Z,53.40
2022-11-22T21:24:06.473Z,54.90
2022-11-22T21:26:35.324Z,63.90
2022-11-22T21:29:05.203Z,82.30
2022-11-22T21:31:34.046Z,80.90
2022-11-22T21:34:03.034Z,55.60
2022-11-22T21:36:31.816Z,54.50
2022-11-22T21:39:00.715Z,56.40
2022-11-22T21:41:39.719Z,59.80
2022-11-22T21:44:09.653Z,55.60
2022-11-22T21:46:39.327Z,55.60
2022-11-22T21:49:08.202Z,60.70
2022-11-22T21:51:37.043Z,76.80
2022-11-22T21:54:05.904Z,72.90
2022-11-22T21:56:34.773Z,61.20
2022-11-22T21:59:03.893Z,72.50
2022-11-22T22:01:33.063Z,61.70
2022-11-22T22:04:02.323Z,58.20
2022-11-22T22:06:31.280Z,64.20
2022-11-22T22:09:00.139Z,58.70
2022-11-22T22:11:28.969Z,71.10
2022-11-22T22:13:59.042Z,64.10
2022-11-22T22:16:27.902Z,52.40
2022-11-22T22:18:56.767Z,56.60
2022-11-22T22:21:25.621Z,62.10
2022-11-22T22:23:54.490Z,73.60
2022-11-22T22:26:23.641Z,84.60
2022-11-22T22:28:53.243Z,59.20
2022-11-22T22:31:23.501Z,50.80
2022-11-22T22:33:55.794Z,60.80
2022-11-22T22:36:25.459Z,56.90
2022-11-22T22:38:54.931Z,59.20
2022-11-22T22:41:23.957Z,62.00
2022-11-22T22:43:53.043Z,61.80
2022-11-22T22:46:23.322Z,61.30
2022-11-22T22:48:54.827Z,60.60
2022-11-22T22:51:30.612Z,58.70
2022-11-22T22:54:01.081Z,72.30
2022-11-22T22:56:31.271Z,70.20
2022-11-22T22:59:01.211Z,54.40
2022-11-22T23:01:30.903Z,55.50
2022-11-22T23:04:00.507Z,58.20
2022-11-22T23:06:31.137Z,54.00
2022-11-22T23:09:00.027Z,59.70
2022-11-22T23:11:49.101Z,53.80
2022-11-22T23:14:27.777Z,56.20
2022-11-22T23:16:58.201Z,51.30
2022-11-22T23:19:28.319Z,52.90
2022-11-22T23:21:57.388Z,54.40
2022-11-22T23:24:26.247Z,63.50
2022-11-22T23:26:55.375Z,74.20
2022-11-22T23:29:24.200Z,50.20
2022-11-22T23:31:53.532Z,53.40
2022-11-22T23:34:22.403Z,45.40
2022-11-22T23:36:51.314Z,44.60
2022-11-22T23:39:20.153Z,53.30
2022-11-22T23:41:49.022Z,53.20
2022-11-22T23:44:17.808Z,53.50
2022-11-22T23:46:46.600Z,48.40
2022-11-22T23:49:15.429Z,48.00
2022-11-22T23:51:44.272Z,58.40
2022-11-22T23:54:13.068Z,73.00
2022-11-22T23:56:41.904Z,71.90
2022-11-22T23:59:10.780Z,47.80
